sensor_id;sensor_type;location;lat;lon;timestamp;temperature;humidity
3310;DHT22;1667;53.238;10.394;2024-01-30T00:03:30;8.60;99.90
3310;DHT22;1667;53.238;10.394;2024-01-30T00:08:29;8.60;99.90
3310;DHT22;1667;53.238;10.394;2024-01-30T00:13:31;8.60;99.90
3310;DHT22;1667;53.238;10.394;2024-01-30T00:18:30;8.60;99.90
3310;DHT22;1667;53.238;10.394;2024-01-30T00:23:30;8.50;99.90
3310;DHT22;1667;53.238;10.394;2024-01-30T00:28:32;8.50;99.90
3310;DHT22;1667;53.238;10.394;2024-01-30T00:33:32;8.50;99.90
3310;DHT22;1667;53.238;10.394;2024-01-30T00:38:32;8.50;99.90
3310;DHT22;1667;53.238;10.394;2024-01-30T00:43:34;8.50;99.90
3310;DHT22;1667;53.238;10.394;2024-01-30T00:48:34;8.50;99.90
3310;DHT22;1667;53.238;10.394;2024-01-30T00:53:34;8.40;99.90
3310;DHT22;1667;53.238;10.394;2024-01-30T00:58:35;8.40;99.90
3310;DHT22;1667;53.238;10.394;2024-01-30T01:03:36;8.40;99.90
3310;DHT22;1667;53.238;10.394;2024-01-30T01:08:36;8.40;99.90
3310;DHT22;1667;53.238;10.394;2024-01-30T01:13:37;8.40;99.90
3310;DHT22;1667;53.238;10.394;2024-01-30T01:18:37;8.30;99.90
3310;DHT22;1667;53.238;10.394;2024-01-30T01:23:37;8.40;99.90
3310;DHT22;1667;53.238;10.394;2024-01-30T01:28:40;8.40;99.90
3310;DHT22;1667;53.238;10.394;2024-01-30T01:33:40;8.30;99.90
3310;DHT22;1667;53.238;10.394;2024-01-30T01:38:39;8.30;99.90
3310;DHT22;1667;53.238;10.394;2024-01-30T01:43:59;8.30;99.90
3310;DHT22;1667;53.238;10.394;2024-01-30T01:49:00;8.30;99.90
3310;DHT22;1667;53.238;10.394;2024-01-30T01:54:03;8.20;99.90
3310;DHT22;1667;53.238;10.394;2024-01-30T01:59:07;8.20;99.90
3310;DHT22;1667;53.238;10.394;2024-01-30T02:04:07;8.10;99.90
3310;DHT22;1667;53.238;10.394;2024-01-30T02:09:07;8.20;99.90
3310;DHT22;1667;53.238;10.394;2024-01-30T02:14:09;8.20;99.90
3310;DHT22;1667;53.238;10.394;2024-01-30T02:19:09;8.20;99.90
3310;DHT22;1667;53.238;10.394;2024-01-30T02:24:10;8.20;99.90
3310;DHT22;1667;53.238;10.394;2024-01-30T02:29:29;8.20;99.90
3310;DHT22;1667;53.238;10.394;2024-01-30T02:34:29;8.20;99.90
3310;DHT22;1667;53.238;10.394;2024-01-30T02:39:30;8.10;99.90
3310;DHT22;1667;53.238;10.394;2024-01-30T02:44:30;8.10;99.90
3310;DHT22;1667;53.238;10.394;2024-01-30T02:49:30;8.10;99.90
3310;DHT22;1667;53.238;10.394;2024-01-30T02:54:32;8.10;99.90
3310;DHT22;1667;53.238;10.394;2024-01-30T02:59:32;8.10;99.90
3310;DHT22;1667;53.238;10.394;2024-01-30T03:04:34;8.10;99.90
3310;DHT22;1667;53.238;10.394;2024-01-30T03:09:36;8.10;99.90
3310;DHT22;1667;53.238;10.394;2024-01-30T03:14:36;8.10;99.90
3310;DHT22;1667;53.238;10.394;2024-01-30T03:19:36;8.00;99.90
3310;DHT22;1667;53.238;10.394;2024-01-30T03:24:37;8.00;99.90
3310;DHT22;1667;53.238;10.394;2024-01-30T03:29:37;8.10;99.90
3310;DHT22;1667;53.238;10.394;2024-01-30T03:34:36;8.10;99.90
3310;DHT22;1667;53.238;10.394;2024-01-30T03:39:37;8.10;99.90
3310;DHT22;1667;53.238;10.394;2024-01-30T03:44:35;8.10;99.90
3310;DHT22;1667;53.238;10.394;2024-01-30T03:49:34;8.10;99.90
3310;DHT22;1667;53.238;10.394;2024-01-30T03:54:33;8.10;99.90
3310;DHT22;1667;53.238;10.394;2024-01-30T03:59:34;8.10;99.90
3310;DHT22;1667;53.238;10.394;2024-01-30T04:04:33;8.10;99.90
3310;DHT22;1667;53.238;10.394;2024-01-30T04:09:32;8.10;99.90
3310;DHT22;1667;53.238;10.394;2024-01-30T04:14:31;8.20;99.90
3310;DHT22;1667;53.238;10.394;2024-01-30T04:19:31;8.10;99.90
3310;DHT22;1667;53.238;10.394;2024-01-30T04:24:30;8.10;99.90
3310;DHT22;1667;53.238;10.394;2024-01-30T04:29:29;8.10;99.90
3310;DHT22;1667;53.238;10.394;2024-01-30T04:34:31;8.10;99.90
3310;DHT22;1667;53.238;10.394;2024-01-30T04:39:33;8.10;99.90
3310;DHT22;1667;53.238;10.394;2024-01-30T04:44:32;8.20;99.90
3310;DHT22;1667;53.238;10.394;2024-01-30T04:49:32;8.10;99.90
3310;DHT22;1667;53.238;10.394;2024-01-30T04:54:31;8.20;99.90
3310;DHT22;1667;53.238;10.394;2024-01-30T04:59:30;8.10;99.90
3310;DHT22;1667;53.238;10.394;2024-01-30T05:04:29;8.10;99.90
3310;DHT22;1667;53.238;10.394;2024-01-30T05:09:30;8.10;99.90
3310;DHT22;1667;53.238;10.394;2024-01-30T05:14:29;8.10;99.90
3310;DHT22;1667;53.238;10.394;2024-01-30T05:19:28;8.40;99.90
3310;DHT22;1667;53.238;10.394;2024-01-30T05:24:27;8.10;99.90
3310;DHT22;1667;53.238;10.394;2024-01-30T05:29:27;8.10;99.90
3310;DHT22;1667;53.238;10.394;2024-01-30T05:34:26;8.30;99.90
3310;DHT22;1667;53.238;10.394;2024-01-30T05:39:25;8.00;99.90
3310;DHT22;1667;53.238;10.394;2024-01-30T05:44:26;8.00;99.90
3310;DHT22;1667;53.238;10.394;2024-01-30T05:49:25;8.00;99.90
3310;DHT22;1667;53.238;10.394;2024-01-30T05:54:25;8.00;99.90
3310;DHT22;1667;53.238;10.394;2024-01-30T05:59:25;8.00;99.90
3310;DHT22;1667;53.238;10.394;2024-01-30T06:04:24;8.00;99.90
3310;DHT22;1667;53.238;10.394;2024-01-30T06:09:23;7.90;99.90
3310;DHT22;1667;53.238;10.394;2024-01-30T06:14:22;7.90;99.90
3310;DHT22;1667;53.238;10.394;2024-01-30T06:19:23;7.80;99.90
3310;DHT22;1667;53.238;10.394;2024-01-30T06:24:22;7.80;99.90
3310;DHT22;1667;53.238;10.394;2024-01-30T06:29:21;7.80;99.90
3310;DHT22;1667;53.238;10.394;2024-01-30T06:34:24;7.80;99.90
3310;DHT22;1667;53.238;10.394;2024-01-30T06:39:24;7.80;99.90
3310;DHT22;1667;53.238;10.394;2024-01-30T06:44:23;7.80;99.90
3310;DHT22;1667;53.238;10.394;2024-01-30T06:49:23;7.80;99.90
3310;DHT22;1667;53.238;10.394;2024-01-30T06:54:22;8.00;99.90
3310;DHT22;1667;53.238;10.394;2024-01-30T06:59:21;7.80;99.90
3310;DHT22;1667;53.238;10.394;2024-01-30T07:04:20;7.80;99.90
3310;DHT22;1667;53.238;10.394;2024-01-30T07:09:20;7.80;99.90
3310;DHT22;1667;53.238;10.394;2024-01-30T07:14:20;7.80;99.90
3310;DHT22;1667;53.238;10.394;2024-01-30T07:19:19;7.80;99.90
3310;DHT22;1667;53.238;10.394;2024-01-30T07:24:20;7.80;99.90
3310;DHT22;1667;53.238;10.394;2024-01-30T07:29:18;7.90;99.90
3310;DHT22;1667;53.238;10.394;2024-01-30T07:34:17;7.90;99.90
3310;DHT22;1667;53.238;10.394;2024-01-30T07:39:16;7.90;99.90
3310;DHT22;1667;53.238;10.394;2024-01-30T07:44:17;7.90;99.90
3310;DHT22;1667;53.238;10.394;2024-01-30T07:49:16;8.00;99.90
3310;DHT22;1667;53.238;10.394;2024-01-30T07:54:15;8.10;99.90
3310;DHT22;1667;53.238;10.394;2024-01-30T07:59:17;8.10;99.90
3310;DHT22;1667;53.238;10.394;2024-01-30T08:04:19;8.20;99.90
3310;DHT22;1667;53.238;10.394;2024-01-30T08:09:18;8.20;99.90
3310;DHT22;1667;53.238;10.394;2024-01-30T08:14:18;8.20;99.90
3310;DHT22;1667;53.238;10.394;2024-01-30T08:19:18;8.30;99.90
3310;DHT22;1667;53.238;10.394;2024-01-30T08:24:18;8.30;99.90
3310;DHT22;1667;53.238;10.394;2024-01-30T08:29:18;8.30;99.90
3310;DHT22;1667;53.238;10.394;2024-01-30T08:34:17;8.40;99.90
3310;DHT22;1667;53.238;10.394;2024-01-30T08:39:17;8.40;99.90
3310;DHT22;1667;53.238;10.394;2024-01-30T08:44:18;8.50;99.90
3310;DHT22;1667;53.238;10.394;2024-01-30T08:49:16;8.60;99.90
3310;DHT22;1667;53.238;10.394;2024-01-30T08:54:16;8.50;99.90
3310;DHT22;1667;53.238;10.394;2024-01-30T08:59:16;8.50;99.90
3310;DHT22;1667;53.238;10.394;2024-01-30T09:04:16;8.60;99.90
3310;DHT22;1667;53.238;10.394;2024-01-30T09:09:17;8.60;99.90
3310;DHT22;1667;53.238;10.394;2024-01-30T09:14:16;8.70;99.90
3310;DHT22;1667;53.238;10.394;2024-01-30T09:19:17;8.70;99.90
3310;DHT22;1667;53.238;10.394;2024-01-30T09:24:16;9.00;99.90
3310;DHT22;1667;53.238;10.394;2024-01-30T09:29:16;8.80;99.90
3310;DHT22;1667;53.238;10.394;2024-01-30T09:34:14;8.90;99.90
3310;DHT22;1667;53.238;10.394;2024-01-30T09:39:15;8.90;99.90
3310;DHT22;1667;53.238;10.394;2024-01-30T09:44:16;8.90;99.90
3310;DHT22;1667;53.238;10.394;2024-01-30T09:49:15;9.20;99.90
3310;DHT22;1667;53.238;10.394;2024-01-30T09:54:18;9.00;99.90
3310;DHT22;1667;53.238;10.394;2024-01-30T09:59:18;9.10;99.90
3310;DHT22;1667;53.238;10.394;2024-01-30T10:04:17;9.20;99.90
3310;DHT22;1667;53.238;10.394;2024-01-30T10:09:18;9.20;99.90
3310;DHT22;1667;53.238;10.394;2024-01-30T10:14:17;9.30;99.90
3310;DHT22;1667;53.238;10.394;2024-01-30T10:19:15;9.40;99.90
3310;DHT22;1667;53.238;10.394;2024-01-30T10:24:14;9.40;99.90
3310;DHT22;1667;53.238;10.394;2024-01-30T10:29:16;9.50;99.90
3310;DHT22;1667;53.238;10.394;2024-01-30T10:34:15;9.90;99.90
3310;DHT22;1667;53.238;10.394;2024-01-30T10:39:20;9.70;99.90
3310;DHT22;1667;53.238;10.394;2024-01-30T10:44:22;9.80;99.90
3310;DHT22;1667;53.238;10.394;2024-01-30T10:49:21;9.90;99.90
3310;DHT22;1667;53.238;10.394;2024-01-30T10:54:23;10.00;99.90
3310;DHT22;1667;53.238;10.394;2024-01-30T10:59:24;10.10;99.90
3310;DHT22;1667;53.238;10.394;2024-01-30T11:04:26;10.40;99.90
3310;DHT22;1667;53.238;10.394;2024-01-30T11:09:25;10.30;99.90
3310;DHT22;1667;53.238;10.394;2024-01-30T11:14:29;10.30;99.90
3310;DHT22;1667;53.238;10.394;2024-01-30T11:19:31;10.50;99.90
3310;DHT22;1667;53.238;10.394;2024-01-30T11:24:38;10.60;99.90
3310;DHT22;1667;53.238;10.394;2024-01-30T11:29:40;10.70;99.90
3310;DHT22;1667;53.238;10.394;2024-01-30T11:34:41;10.70;99.90
3310;DHT22;1667;53.238;10.394;2024-01-30T11:39:41;10.80;99.90
3310;DHT22;1667;53.238;10.394;2024-01-30T11:44:46;10.90;99.90
3310;DHT22;1667;53.238;10.394;2024-01-30T11:49:46;11.00;99.90
3310;DHT22;1667;53.238;10.394;2024-01-30T11:54:45;11.00;99.90
3310;DHT22;1667;53.238;10.394;2024-01-30T11:59:45;11.10;99.90
3310;DHT22;1667;53.238;10.394;2024-01-30T12:04:44;11.20;99.90
3310;DHT22;1667;53.238;10.394;2024-01-30T12:09:51;11.20;99.90
3310;DHT22;1667;53.238;10.394;2024-01-30T12:14:51;11.30;99.90
3310;DHT22;1667;53.238;10.394;2024-01-30T12:19:51;11.40;99.90
3310;DHT22;1667;53.238;10.394;2024-01-30T12:24:52;11.50;99.90
3310;DHT22;1667;53.238;10.394;2024-01-30T12:29:57;11.60;99.90
3310;DHT22;1667;53.238;10.394;2024-01-30T12:34:56;11.60;99.90
3310;DHT22;1667;53.238;10.394;2024-01-30T12:39:58;11.60;99.90
3310;DHT22;1667;53.238;10.394;2024-01-30T12:44:59;11.70;99.90
3310;DHT22;1667;53.238;10.394;2024-01-30T12:49:58;11.80;99.90
3310;DHT22;1667;53.238;10.394;2024-01-30T12:54:57;11.90;99.90
3310;DHT22;1667;53.238;10.394;2024-01-30T12:59:56;11.90;99.90
3310;DHT22;1667;53.238;10.394;2024-01-30T13:04:57;11.90;99.90
3310;DHT22;1667;53.238;10.394;2024-01-30T13:09:56;12.00;99.90
3310;DHT22;1667;53.238;10.394;2024-01-30T13:15:00;12.00;99.90
3310;DHT22;1667;53.238;10.394;2024-01-30T13:20:00;12.00;99.90
3310;DHT22;1667;53.238;10.394;2024-01-30T13:25:08;12.00;99.90
3310;DHT22;1667;53.238;10.394;2024-01-30T13:30:08;12.00;99.90
3310;DHT22;1667;53.238;10.394;2024-01-30T13:35:09;12.00;99.90
3310;DHT22;1667;53.238;10.394;2024-01-30T13:40:09;12.00;99.90
3310;DHT22;1667;53.238;10.394;2024-01-30T13:45:10;12.00;99.90
3310;DHT22;1667;53.238;10.394;2024-01-30T13:50:11;12.10;99.90
3310;DHT22;1667;53.238;10.394;2024-01-30T13:55:12;12.10;99.90
3310;DHT22;1667;53.238;10.394;2024-01-30T14:00:12;12.10;99.90
3310;DHT22;1667;53.238;10.394;2024-01-30T14:05:15;12.10;99.90
3310;DHT22;1667;53.238;10.394;2024-01-30T14:10:14;12.10;99.90
3310;DHT22;1667;53.238;10.394;2024-01-30T14:15:14;12.10;99.90
3310;DHT22;1667;53.238;10.394;2024-01-30T14:20:27;12.20;99.90
3310;DHT22;1667;53.238;10.394;2024-01-30T14:25:26;12.20;99.90
3310;DHT22;1667;53.238;10.394;2024-01-30T14:30:25;12.20;99.90
3310;DHT22;1667;53.238;10.394;2024-01-30T14:35:24;12.20;99.90
3310;DHT22;1667;53.238;10.394;2024-01-30T14:40:24;12.20;99.90
3310;DHT22;1667;53.238;10.394;2024-01-30T14:45:23;12.20;99.90
3310;DHT22;1667;53.238;10.394;2024-01-30T14:50:22;12.20;99.90
3310;DHT22;1667;53.238;10.394;2024-01-30T14:55:21;12.20;99.90
3310;DHT22;1667;53.238;10.394;2024-01-30T15:00:21;12.20;99.90
3310;DHT22;1667;53.238;10.394;2024-01-30T15:05:20;12.20;99.90
3310;DHT22;1667;53.238;10.394;2024-01-30T15:10:19;12.20;99.90
3310;DHT22;1667;53.238;10.394;2024-01-30T15:15:18;12.20;99.90
3310;DHT22;1667;53.238;10.394;2024-01-30T15:20:19;12.20;99.90
3310;DHT22;1667;53.238;10.394;2024-01-30T15:25:17;12.20;99.90
3310;DHT22;1667;53.238;10.394;2024-01-30T15:30:16;12.20;99.90
3310;DHT22;1667;53.238;10.394;2024-01-30T15:35:18;12.20;99.90
3310;DHT22;1667;53.238;10.394;2024-01-30T15:40:17;12.20;99.90
3310;DHT22;1667;53.238;10.394;2024-01-30T15:45:17;12.20;99.90
3310;DHT22;1667;53.238;10.394;2024-01-30T15:50:18;12.20;99.90
3310;DHT22;1667;53.238;10.394;2024-01-30T15:55:17;12.20;99.90
3310;DHT22;1667;53.238;10.394;2024-01-30T16:00:17;12.20;99.90
3310;DHT22;1667;53.238;10.394;2024-01-30T16:05:16;12.20;99.90
3310;DHT22;1667;53.238;10.394;2024-01-30T16:10:17;12.20;99.90
3310;DHT22;1667;53.238;10.394;2024-01-30T16:15:16;12.20;99.90
3310;DHT22;1667;53.238;10.394;2024-01-30T16:20:16;12.20;99.90
3310;DHT22;1667;53.238;10.394;2024-01-30T16:25:18;12.20;99.90
3310;DHT22;1667;53.238;10.394;2024-01-30T16:30:17;12.20;99.90
3310;DHT22;1667;53.238;10.394;2024-01-30T16:35:16;12.10;99.90
3310;DHT22;1667;53.238;10.394;2024-01-30T16:40:15;12.10;99.90
3310;DHT22;1667;53.238;10.394;2024-01-30T16:45:16;12.00;99.90
3310;DHT22;1667;53.238;10.394;2024-01-30T16:50:14;12.00;99.90
3310;DHT22;1667;53.238;10.394;2024-01-30T16:55:14;12.00;99.90
3310;DHT22;1667;53.238;10.394;2024-01-30T17:00:16;12.00;99.90
3310;DHT22;1667;53.238;10.394;2024-01-30T17:05:15;11.90;99.90
3310;DHT22;1667;53.238;10.394;2024-01-30T17:10:24;11.90;99.90
3310;DHT22;1667;53.238;10.394;2024-01-30T17:15:24;11.90;99.90
3310;DHT22;1667;53.238;10.394;2024-01-30T17:20:23;11.90;99.90
3310;DHT22;1667;53.238;10.394;2024-01-30T17:25:22;11.90;99.90
3310;DHT22;1667;53.238;10.394;2024-01-30T17:30:21;11.90;99.90
3310;DHT22;1667;53.238;10.394;2024-01-30T17:35:22;12.00;99.90
3310;DHT22;1667;53.238;10.394;2024-01-30T17:40:21;12.00;99.90
3310;DHT22;1667;53.238;10.394;2024-01-30T17:45:20;11.90;99.90
3310;DHT22;1667;53.238;10.394;2024-01-30T17:50:19;11.90;99.90
3310;DHT22;1667;53.238;10.394;2024-01-30T17:55:22;12.00;99.90
3310;DHT22;1667;53.238;10.394;2024-01-30T18:00:21;11.90;99.90
3310;DHT22;1667;53.238;10.394;2024-01-30T18:05:21;12.00;99.90
3310;DHT22;1667;53.238;10.394;2024-01-30T18:10:22;12.00;99.90
3310;DHT22;1667;53.238;10.394;2024-01-30T18:15:21;12.00;99.90
3310;DHT22;1667;53.238;10.394;2024-01-30T18:20:19;12.00;99.90
3310;DHT22;1667;53.238;10.394;2024-01-30T18:25:18;12.00;99.90
3310;DHT22;1667;53.238;10.394;2024-01-30T18:30:19;12.00;99.90
3310;DHT22;1667;53.238;10.394;2024-01-30T18:35:17;12.00;99.90
3310;DHT22;1667;53.238;10.394;2024-01-30T18:40:16;12.00;99.90
3310;DHT22;1667;53.238;10.394;2024-01-30T18:45:16;12.00;99.90
3310;DHT22;1667;53.238;10.394;2024-01-30T18:50:19;11.90;99.90
3310;DHT22;1667;53.238;10.394;2024-01-30T18:55:18;12.00;99.90
3310;DHT22;1667;53.238;10.394;2024-01-30T19:00:18;12.00;99.90
3310;DHT22;1667;53.238;10.394;2024-01-30T19:05:19;12.00;99.90
3310;DHT22;1667;53.238;10.394;2024-01-30T19:10:18;12.00;99.90
3310;DHT22;1667;53.238;10.394;2024-01-30T19:15:32;12.00;99.90
3310;DHT22;1667;53.238;10.394;2024-01-30T19:27:23;12.00;99.90
3310;DHT22;1667;53.238;10.394;2024-01-30T19:32:22;12.00;99.90
3310;DHT22;1667;53.238;10.394;2024-01-30T19:37:21;11.90;99.90
3310;DHT22;1667;53.238;10.394;2024-01-30T19:42:24;11.90;99.90
3310;DHT22;1667;53.238;10.394;2024-01-30T19:47:23;11.90;99.90
3310;DHT22;1667;53.238;10.394;2024-01-30T19:52:22;11.90;99.90
3310;DHT22;1667;53.238;10.394;2024-01-30T19:57:21;11.90;99.90
3310;DHT22;1667;53.238;10.394;2024-01-30T20:02:22;11.90;99.90
3310;DHT22;1667;53.238;10.394;2024-01-30T20:07:22;11.90;99.90
3310;DHT22;1667;53.238;10.394;2024-01-30T20:12:21;11.80;99.90
3310;DHT22;1667;53.238;10.394;2024-01-30T20:17:21;11.80;99.90
3310;DHT22;1667;53.238;10.394;2024-01-30T20:22:21;11.80;99.90
3310;DHT22;1667;53.238;10.394;2024-01-30T20:27:20;11.80;99.90
3310;DHT22;1667;53.238;10.394;2024-01-30T20:32:20;11.80;99.90
3310;DHT22;1667;53.238;10.394;2024-01-30T20:37:21;11.80;99.90
3310;DHT22;1667;53.238;10.394;2024-01-30T20:42:20;11.80;99.90
3310;DHT22;1667;53.238;10.394;2024-01-30T20:47:19;11.80;99.90
3310;DHT22;1667;53.238;10.394;2024-01-30T20:52:20;11.80;99.90
3310;DHT22;1667;53.238;10.394;2024-01-30T20:57:19;11.80;99.90
3310;DHT22;1667;53.238;10.394;2024-01-30T21:02:19;11.80;99.90
3310;DHT22;1667;53.238;10.394;2024-01-30T21:07:17;11.80;99.90
3310;DHT22;1667;53.238;10.394;2024-01-30T21:12:21;11.80;99.90
3310;DHT22;1667;53.238;10.394;2024-01-30T21:17:20;11.90;99.90
3310;DHT22;1667;53.238;10.394;2024-01-30T21:22:19;11.90;99.90
3310;DHT22;1667;53.238;10.394;2024-01-30T21:27:18;11.80;99.90
3310;DHT22;1667;53.238;10.394;2024-01-30T21:32:18;11.80;99.90
3310;DHT22;1667;53.238;10.394;2024-01-30T21:37:17;11.80;99.90
3310;DHT22;1667;53.238;10.394;2024-01-30T21:42:17;11.80;99.90
3310;DHT22;1667;53.238;10.394;2024-01-30T21:47:19;11.70;99.90
3310;DHT22;1667;53.238;10.394;2024-01-30T21:52:17;11.70;99.90
3310;DHT22;1667;53.238;10.394;2024-01-30T21:57:16;11.70;99.90
3310;DHT22;1667;53.238;10.394;2024-01-30T22:02:15;11.80;99.90
3310;DHT22;1667;53.238;10.394;2024-01-30T22:07:16;11.70;99.90
3310;DHT22;1667;53.238;10.394;2024-01-30T22:12:15;11.70;99.90
3310;DHT22;1667;53.238;10.394;2024-01-30T22:17:14;11.60;99.90
3310;DHT22;1667;53.238;10.394;2024-01-30T22:22:13;11.60;99.90
3310;DHT22;1667;53.238;10.394;2024-01-30T22:27:13;11.60;99.90
3310;DHT22;1667;53.238;10.394;2024-01-30T22:32:12;11.60;99.90
3310;DHT22;1667;53.238;10.394;2024-01-30T22:37:10;11.50;99.90
3310;DHT22;1667;53.238;10.394;2024-01-30T22:42:09;11.40;99.90
3310;DHT22;1667;53.238;10.394;2024-01-30T22:47:09;11.40;99.90
3310;DHT22;1667;53.238;10.394;2024-01-30T22:52:08;11.30;99.90
3310;DHT22;1667;53.238;10.394;2024-01-30T22:57:07;11.30;99.90
3310;DHT22;1667;53.238;10.394;2024-01-30T23:02:06;11.20;99.90
3310;DHT22;1667;53.238;10.394;2024-01-30T23:07:06;11.10;99.90
3310;DHT22;1667;53.238;10.394;2024-01-30T23:12:06;11.00;99.90
3310;DHT22;1667;53.238;10.394;2024-01-30T23:17:04;10.90;99.90
3310;DHT22;1667;53.238;10.394;2024-01-30T23:22:05;10.90;99.90
3310;DHT22;1667;53.238;10.394;2024-01-30T23:27:05;10.90;99.90
3310;DHT22;1667;53.238;10.394;2024-01-30T23:32:05;10.80;99.90
3310;DHT22;1667;53.238;10.394;2024-01-30T23:37:05;10.80;99.90
3310;DHT22;1667;53.238;10.394;2024-01-30T23:42:05;10.80;99.90
3310;DHT22;1667;53.238;10.394;2024-01-30T23:47:04;10.80;99.90
3310;DHT22;1667;53.238;10.394;2024-01-30T23:52:05;10.80;99.90
3310;DHT22;1667;53.238;10.394;2024-01-30T23:57:04;10.70;99.90
